sensor_id;sensor_type;location;lat;lon;timestamp;pressure;altitude;pressure_sealevel;temperature;humidity
5777;BME280;2914;42.668;23.346;2023-02-04T00:00:40;94312.36;;;3.93;84.76
5777;BME280;2914;42.668;23.346;2023-02-04T00:03:09;94310.27;;;3.85;85.79
5777;BME280;2914;42.668;23.346;2023-02-04T00:05:38;94312.88;;;3.85;85.99
5777;BME280;2914;42.668;23.346;2023-02-04T00:10:45;94290.09;;;3.25;90.82
5777;BME280;2914;42.668;23.346;2023-02-04T00:13:14;94293.88;;;3.39;90.72
5777;BME280;2914;42.668;23.346;2023-02-04T00:15:43;94289.86;;;3.40;91.16
5777;BME280;2914;42.668;23.346;2023-02-04T00:18:12;94280.43;;;3.32;91.91
5777;BME280;2914;42.668;23.346;2023-02-04T00:20:41;94278.88;;;3.04;93.71
5777;BME280;2914;42.668;23.346;2023-02-04T00:23:10;94267.38;;;3.01;94.62
5777;BME280;2914;42.668;23.346;2023-02-04T00:25:40;94271.13;;;2.97;95.28
5777;BME280;2914;42.668;23.346;2023-02-04T00:28:09;94276.75;;;3.16;94.36
5777;BME280;2914;42.668;23.346;2023-02-04T00:30:40;94276.75;;;3.16;94.36
5777;BME280;2914;42.668;23.346;2023-02-04T00:33:09;94269.95;;;3.27;93.28
5777;BME280;2914;42.668;23.346;2023-02-04T00:35:39;94262.59;;;3.39;92.60
5777;BME280;2914;42.668;23.346;2023-02-04T00:38:10;94262.59;;;3.39;92.60
5777;BME280;2914;42.668;23.346;2023-02-04T00:40:39;94271.25;;;3.52;91.57
5777;BME280;2914;42.668;23.346;2023-02-04T00:43:08;94270.31;;;3.53;91.43
5777;BME280;2914;42.668;23.346;2023-02-04T00:45:37;94264.42;;;3.44;91.94
5777;BME280;2914;42.668;23.346;2023-02-04T00:48:06;94269.27;;;3.43;92.02
5777;BME280;2914;42.668;23.346;2023-02-04T00:50:38;94265.62;;;3.46;91.62
5777;BME280;2914;42.668;23.346;2023-02-04T00:53:07;94267.55;;;3.49;91.20
5777;BME280;2914;42.668;23.346;2023-02-04T00:55:36;94252.09;;;3.59;90.56
5777;BME280;2914;42.668;23.346;2023-02-04T00:58:06;94252.09;;;3.59;90.55
5777;BME280;2914;42.668;23.346;2023-02-04T01:00:35;94241.55;;;3.29;91.78
5777;BME280;2914;42.668;23.346;2023-02-04T01:03:04;94248.48;;;3.36;92.73
5777;BME280;2914;42.668;23.346;2023-02-04T01:05:33;94243.31;;;3.16;92.79
5777;BME280;2914;42.668;23.346;2023-02-04T01:08:03;94243.95;;;2.81;96.02
5777;BME280;2914;42.668;23.346;2023-02-04T01:10:32;94227.56;;;2.33;97.43
5777;BME280;2914;42.668;23.346;2023-02-04T01:13:01;94225.50;;;2.38;99.08
5777;BME280;2914;42.668;23.346;2023-02-04T01:15:30;94213.16;;;2.14;100.00
5777;BME280;2914;42.668;23.346;2023-02-04T01:18:01;94203.99;;;1.81;100.00
5777;BME280;2914;42.668;23.346;2023-02-04T01:20:30;94214.47;;;2.07;100.00
5777;BME280;2914;42.668;23.346;2023-02-04T01:23:01;94210.73;;;1.91;100.00
5777;BME280;2914;42.668;23.346;2023-02-04T01:25:33;94195.05;;;2.06;100.00
5777;BME280;2914;42.668;23.346;2023-02-04T01:28:03;94203.88;;;2.10;100.00
5777;BME280;2914;42.668;23.346;2023-02-04T01:30:32;94203.88;;;2.10;100.00
5777;BME280;2914;42.668;23.346;2023-02-04T01:33:02;94189.08;;;1.91;100.00
5777;BME280;2914;42.668;23.346;2023-02-04T01:38:09;94186.44;;;1.78;100.00
5777;BME280;2914;42.668;23.346;2023-02-04T01:40:38;94171.93;;;1.81;100.00
5777;BME280;2914;42.668;23.346;2023-02-04T01:43:08;94177.02;;;1.90;100.00
5777;BME280;2914;42.668;23.346;2023-02-04T01:45:38;94177.02;;;1.90;100.00
5777;BME280;2914;42.668;23.346;2023-02-04T01:48:07;94177.02;;;1.90;100.00
5777;BME280;2914;42.668;23.346;2023-02-04T01:50:38;94169.69;;;2.09;100.00
5777;BME280;2914;42.668;23.346;2023-02-04T01:53:07;94165.57;;;2.12;100.00
5777;BME280;2914;42.668;23.346;2023-02-04T01:55:37;94168.83;;;2.29;100.00
5777;BME280;2914;42.668;23.346;2023-02-04T01:58:09;94162.10;;;2.19;100.00
5777;BME280;2914;42.668;23.346;2023-02-04T02:00:38;94146.04;;;1.99;100.00
5777;BME280;2914;42.668;23.346;2023-02-04T02:03:09;94158.06;;;1.60;100.00
5777;BME280;2914;42.668;23.346;2023-02-04T02:05:43;94155.47;;;1.88;100.00
5777;BME280;2914;42.668;23.346;2023-02-04T02:08:15;94155.00;;;2.08;100.00
5777;BME280;2914;42.668;23.346;2023-02-04T02:10:46;94148.97;;;2.08;100.00
5777;BME280;2914;42.668;23.346;2023-02-04T02:13:17;94153.59;;;2.10;100.00
5777;BME280;2914;42.668;23.346;2023-02-04T02:15:47;94158.53;;;2.40;100.00
5777;BME280;2914;42.668;23.346;2023-02-04T02:18:16;94150.67;;;2.34;100.00
5777;BME280;2914;42.668;23.346;2023-02-04T02:20:45;94135.65;;;2.12;100.00
5777;BME280;2914;42.668;23.346;2023-02-04T02:23:18;94137.74;;;1.80;100.00
5777;BME280;2914;42.668;23.346;2023-02-04T02:25:48;94133.46;;;1.86;100.00
5777;BME280;2914;42.668;23.346;2023-02-04T02:31:14;94117.86;;;1.86;100.00
5777;BME280;2914;42.668;23.346;2023-02-04T02:33:45;94109.56;;;1.94;100.00
5777;BME280;2914;42.668;23.346;2023-02-04T02:36:16;94088.31;;;1.87;100.00
5777;BME280;2914;42.668;23.346;2023-02-04T02:38:45;94080.95;;;2.07;100.00
5777;BME280;2914;42.668;23.346;2023-02-04T02:41:14;94070.81;;;2.09;100.00
5777;BME280;2914;42.668;23.346;2023-02-04T02:43:44;94067.17;;;2.25;99.74
5777;BME280;2914;42.668;23.346;2023-02-04T02:46:13;94065.50;;;2.24;99.19
5777;BME280;2914;42.668;23.346;2023-02-04T02:48:42;94047.66;;;2.12;99.06
5777;BME280;2914;42.668;23.346;2023-02-04T02:51:11;94057.91;;;2.08;99.31
5777;BME280;2914;42.668;23.346;2023-02-04T02:53:40;94060.88;;;2.22;99.22
5777;BME280;2914;42.668;23.346;2023-02-04T02:56:10;94060.07;;;2.52;97.62
5777;BME280;2914;42.668;23.346;2023-02-04T02:58:39;94055.34;;;2.52;96.60
5777;BME280;2914;42.668;23.346;2023-02-04T03:01:09;94046.19;;;2.46;96.39
5777;BME280;2914;42.668;23.346;2023-02-04T03:03:40;94049.47;;;2.56;96.48
5777;BME280;2914;42.668;23.346;2023-02-04T03:06:13;94056.87;;;2.67;95.29
5777;BME280;2914;42.668;23.346;2023-02-04T03:08:45;94056.31;;;2.57;95.67
5777;BME280;2914;42.668;23.346;2023-02-04T03:11:15;94047.31;;;2.68;95.06
5777;BME280;2914;42.668;23.346;2023-02-04T03:13:44;94050.14;;;2.70;94.56
5777;BME280;2914;42.668;23.346;2023-02-04T03:16:14;94059.03;;;2.68;94.65
5777;BME280;2914;42.668;23.346;2023-02-04T03:18:44;94065.77;;;2.83;94.38
5777;BME280;2914;42.668;23.346;2023-02-04T03:21:14;94069.97;;;2.92;93.45
5777;BME280;2914;42.668;23.346;2023-02-04T03:23:43;94067.41;;;2.97;92.89
5777;BME280;2914;42.668;23.346;2023-02-04T03:26:12;94062.16;;;2.92;92.75
5777;BME280;2914;42.668;23.346;2023-02-04T03:28:42;94051.08;;;2.82;93.19
5777;BME280;2914;42.668;23.346;2023-02-04T03:31:11;94050.41;;;2.73;93.95
5777;BME280;2914;42.668;23.346;2023-02-04T03:33:40;94052.11;;;2.61;94.14
5777;BME280;2914;42.668;23.346;2023-02-04T03:36:10;94046.86;;;2.56;94.24
5777;BME280;2914;42.668;23.346;2023-02-04T03:38:40;94052.85;;;2.50;95.55
5777;BME280;2914;42.668;23.346;2023-02-04T03:41:09;94051.93;;;2.70;94.74
5777;BME280;2914;42.668;23.346;2023-02-04T03:43:38;94048.24;;;2.85;93.71
5777;BME280;2914;42.668;23.346;2023-02-04T03:46:10;94045.72;;;2.78;93.35
5777;BME280;2914;42.668;23.346;2023-02-04T03:48:39;94036.78;;;2.88;93.16
5777;BME280;2914;42.668;23.346;2023-02-04T03:51:08;94033.58;;;2.84;92.65
5777;BME280;2914;42.668;23.346;2023-02-04T03:53:37;94045.42;;;2.70;93.86
5777;BME280;2914;42.668;23.346;2023-02-04T03:56:07;94022.71;;;2.28;95.26
5777;BME280;2914;42.668;23.346;2023-02-04T03:58:37;94027.52;;;2.52;95.31
5777;BME280;2914;42.668;23.346;2023-02-04T04:01:06;94019.22;;;2.47;95.18
5777;BME280;2914;42.668;23.346;2023-02-04T04:03:36;94004.08;;;2.21;96.03
5777;BME280;2914;42.668;23.346;2023-02-04T04:06:05;94003.16;;;2.35;95.96
5777;BME280;2914;42.668;23.346;2023-02-04T04:08:36;93993.04;;;2.43;95.68
5777;BME280;2914;42.668;23.346;2023-02-04T04:11:06;93989.58;;;2.56;94.95
5777;BME280;2914;42.668;23.346;2023-02-04T04:13:35;93982.20;;;2.68;94.26
5777;BME280;2914;42.668;23.346;2023-02-04T04:16:05;93978.36;;;2.79;93.65
5777;BME280;2914;42.668;23.346;2023-02-04T04:18:35;93974.40;;;2.92;92.68
5777;BME280;2914;42.668;23.346;2023-02-04T04:21:05;93973.06;;;2.86;92.68
5777;BME280;2914;42.668;23.346;2023-02-04T04:23:35;93982.61;;;2.99;92.41
5777;BME280;2914;42.668;23.346;2023-02-04T04:26:06;93976.21;;;2.97;92.59
5777;BME280;2914;42.668;23.346;2023-02-04T04:28:36;93976.09;;;2.99;92.34
5777;BME280;2914;42.668;23.346;2023-02-04T04:31:06;93983.43;;;2.99;92.46
5777;BME280;2914;42.668;23.346;2023-02-04T04:36:12;93987.11;;;2.78;93.84
5777;BME280;2914;42.668;23.346;2023-02-04T04:38:42;93980.09;;;2.73;94.80
5777;BME280;2914;42.668;23.346;2023-02-04T04:41:11;93979.41;;;2.77;94.86
5777;BME280;2914;42.668;23.346;2023-02-04T04:43:40;94000.19;;;2.52;96.04
5777;BME280;2914;42.668;23.346;2023-02-04T04:46:09;94000.19;;;2.52;96.04
5777;BME280;2914;42.668;23.346;2023-02-04T04:48:40;93994.86;;;2.67;96.34
5777;BME280;2914;42.668;23.346;2023-02-04T04:53:53;94005.45;;;2.77;96.79
5777;BME280;2914;42.668;23.346;2023-02-04T04:56:22;93999.23;;;2.85;96.26
5777;BME280;2914;42.668;23.346;2023-02-04T04:58:51;94007.61;;;2.83;96.74
5777;BME280;2914;42.668;23.346;2023-02-04T05:01:20;94007.33;;;2.93;95.96
5777;BME280;2914;42.668;23.346;2023-02-04T05:03:49;94000.94;;;2.92;95.59
5777;BME280;2914;42.668;23.346;2023-02-04T05:06:18;94012.31;;;3.15;94.37
5777;BME280;2914;42.668;23.346;2023-02-04T05:11:26;94001.20;;;3.24;93.80
5777;BME280;2914;42.668;23.346;2023-02-04T05:13:56;93983.96;;;2.67;96.18
5777;BME280;2914;42.668;23.346;2023-02-04T05:16:25;93983.96;;;2.67;96.18
5777;BME280;2914;42.668;23.346;2023-02-04T05:18:54;94009.29;;;3.02;96.02
5777;BME280;2914;42.668;23.346;2023-02-04T05:21:23;94018.42;;;4.03;100.00
5777;BME280;2914;42.668;23.346;2023-02-04T05:23:52;94018.56;;;3.66;100.00
5777;BME280;2914;42.668;23.346;2023-02-04T05:26:21;94029.17;;;3.46;100.00
5777;BME280;2914;42.668;23.346;2023-02-04T05:28:50;94026.06;;;3.41;98.66
5777;BME280;2914;42.668;23.346;2023-02-04T05:31:19;94040.56;;;3.51;98.23
5777;BME280;2914;42.668;23.346;2023-02-04T05:36:35;94053.39;;;3.60;98.25
5777;BME280;2914;42.668;23.346;2023-02-04T05:39:04;94042.25;;;3.58;97.75
5777;BME280;2914;42.668;23.346;2023-02-04T05:41:33;94048.13;;;3.48;97.37
5777;BME280;2914;42.668;23.346;2023-02-04T05:44:03;94048.34;;;3.39;98.38
5777;BME280;2914;42.668;23.346;2023-02-04T05:46:32;94049.05;;;3.42;98.09
5777;BME280;2914;42.668;23.346;2023-02-04T05:49:02;94057.92;;;3.39;97.88
5777;BME280;2914;42.668;23.346;2023-02-04T05:51:32;94040.27;;;3.37;98.15
5777;BME280;2914;42.668;23.346;2023-02-04T05:54:01;94055.55;;;3.36;96.71
5777;BME280;2914;42.668;23.346;2023-02-04T05:56:31;94049.84;;;3.36;96.46
5777;BME280;2914;42.668;23.346;2023-02-04T05:59:00;94037.43;;;3.40;95.62
5777;BME280;2914;42.668;23.346;2023-02-04T06:01:29;94013.81;;;3.30;95.53
5777;BME280;2914;42.668;23.346;2023-02-04T06:06:36;94028.85;;;3.32;94.16
5777;BME280;2914;42.668;23.346;2023-02-04T06:11:43;94023.46;;;3.41;94.12
5777;BME280;2914;42.668;23.346;2023-02-04T06:14:12;94040.30;;;3.43;93.50
5777;BME280;2914;42.668;23.346;2023-02-04T06:16:41;94038.58;;;3.54;92.67
5777;BME280;2914;42.668;23.346;2023-02-04T06:19:10;94047.84;;;3.59;91.45
5777;BME280;2914;42.668;23.346;2023-02-04T06:21:40;94054.52;;;3.68;91.17
5777;BME280;2914;42.668;23.346;2023-02-04T06:24:09;94052.69;;;3.87;90.60
5777;BME280;2914;42.668;23.346;2023-02-04T06:26:38;94044.52;;;3.98;89.04
5777;BME280;2914;42.668;23.346;2023-02-04T06:29:07;94059.80;;;3.97;88.18
5777;BME280;2914;42.668;23.346;2023-02-04T06:31:36;94064.69;;;3.96;87.86
5777;BME280;2914;42.668;23.346;2023-02-04T06:34:06;94061.84;;;3.99;87.43
5777;BME280;2914;42.668;23.346;2023-02-04T06:39:13;94053.89;;;3.95;86.88
5777;BME280;2914;42.668;23.346;2023-02-04T06:44:19;94052.70;;;3.93;86.92
5777;BME280;2914;42.668;23.346;2023-02-04T06:46:49;94060.98;;;3.93;86.72
5777;BME280;2914;42.668;23.346;2023-02-04T06:49:18;94060.03;;;3.88;86.66
5777;BME280;2914;42.668;23.346;2023-02-04T06:51:47;94053.26;;;3.85;85.82
5777;BME280;2914;42.668;23.346;2023-02-04T06:54:17;94053.14;;;3.87;85.30
5777;BME280;2914;42.668;23.346;2023-02-04T06:56:46;94059.53;;;3.83;85.30
5777;BME280;2914;42.668;23.346;2023-02-04T06:59:15;94057.19;;;3.91;84.53
5777;BME280;2914;42.668;23.346;2023-02-04T07:01:44;94054.38;;;4.00;84.35
5777;BME280;2914;42.668;23.346;2023-02-04T07:04:13;94050.63;;;4.21;83.50
5777;BME280;2914;42.668;23.346;2023-02-04T07:06:42;94033.09;;;4.46;82.13
5777;BME280;2914;42.668;23.346;2023-02-04T07:09:11;94040.45;;;4.69;79.91
5777;BME280;2914;42.668;23.346;2023-02-04T07:11:40;94041.14;;;4.99;78.18
5777;BME280;2914;42.668;23.346;2023-02-04T07:14:09;94026.81;;;5.26;77.08
5777;BME280;2914;42.668;23.346;2023-02-04T07:16:38;94025.95;;;5.48;75.48
5777;BME280;2914;42.668;23.346;2023-02-04T07:19:07;94031.80;;;5.67;74.07
5777;BME280;2914;42.668;23.346;2023-02-04T07:21:36;94012.57;;;5.89;73.62
5777;BME280;2914;42.668;23.346;2023-02-04T07:24:06;94043.98;;;5.89;72.47
5777;BME280;2914;42.668;23.346;2023-02-04T07:26:35;94028.34;;;6.05;72.06
5777;BME280;2914;42.668;23.346;2023-02-04T07:31:40;94020.22;;;6.08;71.79
5777;BME280;2914;42.668;23.346;2023-02-04T07:34:13;94024.67;;;6.02;71.75
5777;BME280;2914;42.668;23.346;2023-02-04T07:36:42;94024.98;;;6.60;70.83
5777;BME280;2914;42.668;23.346;2023-02-04T07:39:11;94024.98;;;6.60;70.83
5777;BME280;2914;42.668;23.346;2023-02-04T07:41:40;94019.28;;;6.61;68.28
5777;BME280;2914;42.668;23.346;2023-02-04T07:44:09;94016.61;;;6.67;67.96
5777;BME280;2914;42.668;23.346;2023-02-04T07:49:15;94031.27;;;6.94;67.86
5777;BME280;2914;42.668;23.346;2023-02-04T07:54:28;94020.73;;;7.25;66.25
5777;BME280;2914;42.668;23.346;2023-02-04T07:56:57;94019.50;;;7.29;65.83
5777;BME280;2914;42.668;23.346;2023-02-04T07:59:26;94005.88;;;7.20;65.94
5777;BME280;2914;42.668;23.346;2023-02-04T08:01:55;94019.88;;;7.15;65.19
5777;BME280;2914;42.668;23.346;2023-02-04T08:04:24;94019.88;;;7.15;65.19
5777;BME280;2914;42.668;23.346;2023-02-04T08:06:54;94017.87;;;6.98;65.88
5777;BME280;2914;42.668;23.346;2023-02-04T08:09:23;94025.13;;;6.90;66.03
5777;BME280;2914;42.668;23.346;2023-02-04T08:14:29;94025.25;;;6.57;68.01
5777;BME280;2914;42.668;23.346;2023-02-04T08:16:59;94024.27;;;6.27;68.77
5777;BME280;2914;42.668;23.346;2023-02-04T08:19:28;94029.16;;;6.05;70.06
5777;BME280;2914;42.668;23.346;2023-02-04T08:21:57;94031.32;;;5.94;70.87
5777;BME280;2914;42.668;23.346;2023-02-04T08:24:26;94029.58;;;5.89;71.26
5777;BME280;2914;42.668;23.346;2023-02-04T08:26:55;94030.27;;;5.91;71.29
5777;BME280;2914;42.668;23.346;2023-02-04T08:29:26;94027.84;;;5.78;71.67
5777;BME280;2914;42.668;23.346;2023-02-04T08:31:55;94030.36;;;5.74;72.24
5777;BME280;2914;42.668;23.346;2023-02-04T08:34:24;94017.41;;;5.67;73.13
5777;BME280;2914;42.668;23.346;2023-02-04T08:36:53;94014.66;;;5.74;73.15
5777;BME280;2914;42.668;23.346;2023-02-04T08:39:22;94014.66;;;5.74;73.15
5777;BME280;2914;42.668;23.346;2023-02-04T08:41:51;94017.84;;;5.51;73.87
5777;BME280;2914;42.668;23.346;2023-02-04T08:44:20;94010.94;;;5.50;74.19
5777;BME280;2914;42.668;23.346;2023-02-04T08:46:49;94010.94;;;5.50;74.19
5777;BME280;2914;42.668;23.346;2023-02-04T08:49:18;94007.41;;;5.46;75.63
5777;BME280;2914;42.668;23.346;2023-02-04T08:51:47;94001.59;;;5.36;76.21
5777;BME280;2914;42.668;23.346;2023-02-04T08:54:16;94007.69;;;5.25;77.21
5777;BME280;2914;42.668;23.346;2023-02-04T08:56:46;94003.39;;;5.30;77.81
5777;BME280;2914;42.668;23.346;2023-02-04T08:59:15;94010.33;;;5.20;79.01
5777;BME280;2914;42.668;23.346;2023-02-04T09:02:02;94009.51;;;5.08;80.38
5777;BME280;2914;42.668;23.346;2023-02-04T09:04:32;94009.51;;;5.08;80.38
5777;BME280;2914;42.668;23.346;2023-02-04T09:07:01;94007.82;;;5.24;80.17
5777;BME280;2914;42.668;23.346;2023-02-04T09:09:30;94014.02;;;5.17;79.85
5777;BME280;2914;42.668;23.346;2023-02-04T09:14:41;94005.34;;;5.17;80.04
5777;BME280;2914;42.668;23.346;2023-02-04T09:17:10;94005.59;;;5.08;79.40
5777;BME280;2914;42.668;23.346;2023-02-04T09:19:39;94006.42;;;5.14;78.85
5777;BME280;2914;42.668;23.346;2023-02-04T09:24:46;94000.90;;;5.29;78.16
5777;BME280;2914;42.668;23.346;2023-02-04T09:27:15;93997.59;;;5.26;76.87
5777;BME280;2914;42.668;23.346;2023-02-04T09:29:46;93999.74;;;5.21;76.46
5777;BME280;2914;42.668;23.346;2023-02-04T09:32:15;93982.48;;;5.24;76.50
5777;BME280;2914;42.668;23.346;2023-02-04T09:34:44;93997.13;;;5.21;76.38
5777;BME280;2914;42.668;23.346;2023-02-04T09:37:13;93993.55;;;5.28;76.23
5777;BME280;2914;42.668;23.346;2023-02-04T09:39:42;93994.83;;;5.34;76.74
5777;BME280;2914;42.668;23.346;2023-02-04T09:42:13;93999.01;;;5.31;80.11
5777;BME280;2914;42.668;23.346;2023-02-04T09:44:42;93996.65;;;5.28;81.45
5777;BME280;2914;42.668;23.346;2023-02-04T09:47:13;93989.64;;;5.22;82.62
5777;BME280;2914;42.668;23.346;2023-02-04T09:49:44;93984.88;;;5.22;83.47
5777;BME280;2914;42.668;23.346;2023-02-04T09:52:15;93982.67;;;5.06;84.92
5777;BME280;2914;42.668;23.346;2023-02-04T09:57:24;93980.15;;;5.16;87.17
5777;BME280;2914;42.668;23.346;2023-02-04T09:59:53;93962.83;;;5.03;88.48
5777;BME280;2914;42.668;23.346;2023-02-04T10:02:25;93968.55;;;4.91;89.54
5777;BME280;2914;42.668;23.346;2023-02-04T10:04:56;93965.58;;;5.02;90.74
5777;BME280;2914;42.668;23.346;2023-02-04T10:07:25;93966.30;;;4.92;89.47
5777;BME280;2914;42.668;23.346;2023-02-04T10:09:55;93961.91;;;4.99;88.81
5777;BME280;2914;42.668;23.346;2023-02-04T10:12:25;93961.04;;;5.04;89.10
5777;BME280;2914;42.668;23.346;2023-02-04T10:17:31;93953.47;;;5.33;90.71
5777;BME280;2914;42.668;23.346;2023-02-04T10:20:01;93944.11;;;5.25;87.62
5777;BME280;2914;42.668;23.346;2023-02-04T10:22:30;93939.70;;;5.25;88.37
5777;BME280;2914;42.668;23.346;2023-02-04T10:27:51;93939.47;;;5.23;88.37
5777;BME280;2914;42.668;23.346;2023-02-04T10:30:23;93929.62;;;5.21;87.86
5777;BME280;2914;42.668;23.346;2023-02-04T10:32:53;93938.91;;;5.19;88.44
5777;BME280;2914;42.668;23.346;2023-02-04T10:35:22;93939.67;;;5.04;87.61
5777;BME280;2914;42.668;23.346;2023-02-04T10:38:04;93941.98;;;5.19;90.00
5777;BME280;2914;42.668;23.346;2023-02-04T10:43:13;93932.27;;;5.15;90.03
5777;BME280;2914;42.668;23.346;2023-02-04T10:45:46;93936.72;;;4.98;90.90
5777;BME280;2914;42.668;23.346;2023-02-04T10:48:17;93931.73;;;4.89;93.54
5777;BME280;2914;42.668;23.346;2023-02-04T10:50:47;93931.42;;;4.82;95.09
5777;BME280;2914;42.668;23.346;2023-02-04T10:53:19;93927.37;;;4.72;95.73
5777;BME280;2914;42.668;23.346;2023-02-04T10:56:11;93919.55;;;4.67;96.87
5777;BME280;2914;42.668;23.346;2023-02-04T11:01:27;93905.81;;;4.59;97.44
5777;BME280;2914;42.668;23.346;2023-02-04T11:03:57;93907.12;;;4.59;98.58
5777;BME280;2914;42.668;23.346;2023-02-04T11:09:04;93906.80;;;4.85;98.15
5777;BME280;2914;42.668;23.346;2023-02-04T11:14:27;93896.25;;;4.86;95.54
5777;BME280;2914;42.668;23.346;2023-02-04T11:16:57;93903.26;;;4.80;95.48
5777;BME280;2914;42.668;23.346;2023-02-04T11:22:23;93894.74;;;5.05;97.12
5777;BME280;2914;42.668;23.346;2023-02-04T11:27:38;93881.80;;;5.03;94.22
5777;BME280;2914;42.668;23.346;2023-02-04T11:33:03;93901.84;;;5.14;92.50
5777;BME280;2914;42.668;23.346;2023-02-04T11:35:33;93895.69;;;5.04;92.96
5777;BME280;2914;42.668;23.346;2023-02-04T11:40:40;93902.89;;;5.17;92.79
5777;BME280;2914;42.668;23.346;2023-02-04T11:43:12;93908.06;;;5.02;93.52
5777;BME280;2914;42.668;23.346;2023-02-04T11:45:43;93908.06;;;5.02;93.52
5777;BME280;2914;42.668;23.346;2023-02-04T11:48:16;93903.53;;;5.04;94.12
5777;BME280;2914;42.668;23.346;2023-02-04T11:50:55;93910.06;;;5.04;93.79
5777;BME280;2914;42.668;23.346;2023-02-04T11:53:28;93906.27;;;5.02;94.75
5777;BME280;2914;42.668;23.346;2023-02-04T12:01:18;93902.05;;;5.22;93.23
5777;BME280;2914;42.668;23.346;2023-02-04T12:06:28;93908.45;;;5.24;93.76
5777;BME280;2914;42.668;23.346;2023-02-04T12:09:06;93900.33;;;5.06;93.77
5777;BME280;2914;42.668;23.346;2023-02-04T12:11:36;93893.66;;;5.07;94.11
5777;BME280;2914;42.668;23.346;2023-02-04T12:14:09;93903.81;;;4.95;95.88
5777;BME280;2914;42.668;23.346;2023-02-04T12:16:44;93901.34;;;4.88;96.27
5777;BME280;2914;42.668;23.346;2023-02-04T12:19:14;93901.34;;;4.88;96.27
5777;BME280;2914;42.668;23.346;2023-02-04T12:21:43;93891.42;;;4.65;97.73
5777;BME280;2914;42.668;23.346;2023-02-04T12:24:12;93889.16;;;4.60;98.44
5777;BME280;2914;42.668;23.346;2023-02-04T12:26:41;93889.16;;;4.60;98.44
5777;BME280;2914;42.668;23.346;2023-02-04T12:29:11;93888.91;;;4.74;99.46
5777;BME280;2914;42.668;23.346;2023-02-04T12:31:41;93891.24;;;4.83;99.62
5777;BME280;2914;42.668;23.346;2023-02-04T12:34:10;93885.80;;;4.75;100.00
5777;BME280;2914;42.668;23.346;2023-02-04T12:36:39;93891.03;;;4.75;100.00
5777;BME280;2914;42.668;23.346;2023-02-04T12:41:44;93877.19;;;4.96;100.00
5777;BME280;2914;42.668;23.346;2023-02-04T12:46:51;93881.44;;;5.02;99.69
5777;BME280;2914;42.668;23.346;2023-02-04T12:49:21;93880.19;;;4.91;99.03
5777;BME280;2914;42.668;23.346;2023-02-04T12:51:51;93875.11;;;4.84;98.67
5777;BME280;2914;42.668;23.346;2023-02-04T12:54:20;93879.84;;;4.84;97.97
5777;BME280;2914;42.668;23.346;2023-02-04T12:56:49;93879.36;;;4.85;96.18
5777;BME280;2914;42.668;23.346;2023-02-04T12:59:20;93879.36;;;4.85;96.18
5777;BME280;2914;42.668;23.346;2023-02-04T13:04:26;93873.05;;;4.87;92.43
5777;BME280;2914;42.668;23.346;2023-02-04T13:06:55;93876.44;;;4.78;91.79
5777;BME280;2914;42.668;23.346;2023-02-04T13:12:21;93874.72;;;4.88;91.88
5777;BME280;2914;42.668;23.346;2023-02-04T13:14:50;93881.05;;;4.80;91.56
5777;BME280;2914;42.668;23.346;2023-02-04T13:17:19;93880.94;;;4.76;91.03
5777;BME280;2914;42.668;23.346;2023-02-04T13:19:48;93860.88;;;4.71;91.61
5777;BME280;2914;42.668;23.346;2023-02-04T13:24:55;93885.15;;;4.62;91.81
5777;BME280;2914;42.668;23.346;2023-02-04T13:30:03;93907.35;;;4.62;92.56
5777;BME280;2914;42.668;23.346;2023-02-04T13:35:10;93918.47;;;4.75;93.14
5777;BME280;2914;42.668;23.346;2023-02-04T13:37:40;93907.69;;;4.63;92.97
5777;BME280;2914;42.668;23.346;2023-02-04T13:40:11;93899.39;;;4.63;92.87
5777;BME280;2914;42.668;23.346;2023-02-04T13:42:40;93906.39;;;4.57;92.52
5777;BME280;2914;42.668;23.346;2023-02-04T13:47:54;93907.70;;;4.57;93.51
5777;BME280;2914;42.668;23.346;2023-02-04T13:53:01;93908.88;;;4.58;93.44
5777;BME280;2914;42.668;23.346;2023-02-04T13:58:17;93907.58;;;4.58;93.45
5777;BME280;2914;42.668;23.346;2023-02-04T14:03:23;93926.59;;;4.44;94.17
5777;BME280;2914;42.668;23.346;2023-02-04T14:08:31;93919.60;;;4.44;94.42
5777;BME280;2914;42.668;23.346;2023-02-04T14:13:42;93932.89;;;4.52;94.17
5777;BME280;2914;42.668;23.346;2023-02-04T14:16:11;93930.86;;;4.50;93.86
5777;BME280;2914;42.668;23.346;2023-02-04T14:18:41;93933.50;;;4.33;93.38
5777;BME280;2914;42.668;23.346;2023-02-04T14:23:48;93946.42;;;4.40;93.84
5777;BME280;2914;42.668;23.346;2023-02-04T14:28:55;93945.34;;;4.49;93.44
5777;BME280;2914;42.668;23.346;2023-02-04T14:34:02;93974.33;;;4.40;93.68
5777;BME280;2914;42.668;23.346;2023-02-04T14:39:09;93972.98;;;3.89;95.89
5777;BME280;2914;42.668;23.346;2023-02-04T14:44:34;93978.38;;;3.69;98.59
5777;BME280;2914;42.668;23.346;2023-02-04T14:49:47;93979.84;;;3.84;99.43
5777;BME280;2914;42.668;23.346;2023-02-04T14:54:54;93987.41;;;3.82;95.50
5777;BME280;2914;42.668;23.346;2023-02-04T14:57:23;93979.32;;;3.68;94.61
5777;BME280;2914;42.668;23.346;2023-02-04T14:59:52;93988.69;;;3.65;93.91
5777;BME280;2914;42.668;23.346;2023-02-04T15:02:21;93981.23;;;3.66;94.17
5777;BME280;2914;42.668;23.346;2023-02-04T15:04:50;93997.01;;;3.70;92.99
5777;BME280;2914;42.668;23.346;2023-02-04T15:07:19;94007.08;;;3.69;92.66
5777;BME280;2914;42.668;23.346;2023-02-04T15:09:49;94000.69;;;3.73;92.03
5777;BME280;2914;42.668;23.346;2023-02-04T15:12:18;93981.22;;;3.60;91.08
5777;BME280;2914;42.668;23.346;2023-02-04T15:14:47;93996.52;;;3.70;89.99
5777;BME280;2914;42.668;23.346;2023-02-04T15:17:16;93996.13;;;3.58;89.92
5777;BME280;2914;42.668;23.346;2023-02-04T15:19:46;94004.20;;;3.61;89.74
5777;BME280;2914;42.668;23.346;2023-02-04T15:24:53;94012.89;;;3.67;87.88
5777;BME280;2914;42.668;23.346;2023-02-04T15:27:22;94009.89;;;3.54;87.56
5777;BME280;2914;42.668;23.346;2023-02-04T15:29:56;94011.41;;;3.57;86.41
5777;BME280;2914;42.668;23.346;2023-02-04T15:32:26;94021.62;;;3.54;86.47
5777;BME280;2914;42.668;23.346;2023-02-04T15:34:55;94034.73;;;3.47;86.35
5777;BME280;2914;42.668;23.346;2023-02-04T15:37:24;94040.77;;;3.42;87.14
